Time;durP1;ratioP1;P1;durP2;ratioP2;P2;SDS_P1;SDS_P2;PMS_P1;PMS_P2;Temp;Humidity;BMP_temperature;BMP_pressure;BME280_temperature;BME280_humidity;BME280_pressure;Samples;Min_cycle;Max_cycle;Signal;HPM_P1;HPM_P2
2023/09/02 00:01:04;;;;;;;13.25;9.65;;;14.40;99.90;;;;;;5027664;28;20192;-71
2023/09/02 00:03:30;;;;;;;14.23;10.65;;;14.50;99.90;;;;;;5023919;28;20192;-73
2023/09/02 00:05:56;;;;;;;13.95;10.98;;;14.40;99.90;;;;;;5033806;28;20199;-73
2023/09/02 00:08:22;;;;;;;13.57;9.77;;;14.50;99.90;;;;;;5027976;28;20552;-73
2023/09/02 00:10:48;;;;;;;13.02;9.70;;;14.50;99.90;;;;;;5032133;28;20194;-73
2023/09/02 00:13:14;;;;;;;15.32;9.68;;;14.50;99.90;;;;;;5034197;28;20655;-74
2023/09/02 00:15:41;;;;;;;13.95;9.43;;;14.40;99.90;;;;;;5041332;28;20215;-73
2023/09/02 00:18:07;;;;;;;11.55;9.35;;;14.40;99.90;;;;;;5030712;28;20195;-73
2023/09/02 00:20:32;;;;;;;11.60;8.75;;;14.40;99.90;;;;;;5029508;28;20271;-73
2023/09/02 00:22:58;;;;;;;16.63;9.50;;;14.40;99.90;;;;;;5026778;28;20224;-73
2023/09/02 00:25:24;;;;;;;14.35;9.27;;;14.40;99.90;;;;;;5033406;28;20194;-71
2023/09/02 00:27:51;;;;;;;12.65;9.65;;;14.40;99.90;;;;;;5031416;28;20245;-72
2023/09/02 00:30:17;;;;;;;12.02;9.02;;;14.50;99.90;;;;;;5015100;28;20648;-73
2023/09/02 00:32:43;;;;;;;14.02;9.50;;;14.40;99.90;;;;;;5024930;28;20202;-73
2023/09/02 00:35:10;;;;;;;14.85;9.82;;;14.40;99.90;;;;;;5025828;28;20215;-73
2023/09/02 00:37:36;;;;;;;13.15;8.75;;;14.40;99.90;;;;;;5030203;28;20193;-72
2023/09/02 00:40:03;;;;;;;12.52;9.15;;;14.40;99.90;;;;;;5028991;28;20195;-72
2023/09/02 00:42:31;;;;;;;15.30;9.80;;;14.40;99.90;;;;;;5028881;28;20206;-72
2023/09/02 00:44:57;;;;;;;12.50;9.70;;;14.40;99.90;;;;;;5031495;28;20196;-72
2023/09/02 00:47:23;;;;;;;14.27;9.23;;;14.40;99.90;;;;;;5030326;28;20210;-73
2023/09/02 00:49:49;;;;;;;16.48;9.70;;;14.40;99.90;;;;;;5011970;28;20188;-73
2023/09/02 00:52:15;;;;;;;14.88;10.10;;;14.40;99.90;;;;;;5026507;28;20184;-73
2023/09/02 00:54:41;;;;;;;12.90;10.00;;;14.40;99.90;;;;;;5060782;28;20230;-72
2023/09/02 00:57:07;;;;;;;15.75;9.93;;;14.40;99.90;;;;;;5064967;28;20188;-71
2023/09/02 00:59:34;;;;;;;14.05;10.23;;;14.40;99.90;;;;;;5030977;28;20228;-72
2023/09/02 01:02:02;;;;;;;14.90;10.57;;;14.40;99.90;;;;;;5031572;28;20227;-71
2023/09/02 01:04:28;;;;;;;17.10;10.23;;;14.40;99.90;;;;;;5025245;28;20191;-74
2023/09/02 01:06:55;;;;;;;15.38;10.68;;;14.30;99.90;;;;;;5064770;28;20184;-73
2023/09/02 01:09:21;;;;;;;16.63;9.77;;;14.40;99.90;;;;;;5028028;28;20678;-73
2023/09/02 01:11:48;;;;;;;14.88;10.60;;;14.30;99.90;;;;;;5029945;28;20182;-73
2023/09/02 01:14:15;;;;;;;14.65;9.98;;;14.30;99.90;;;;;;5029392;28;20223;-74
2023/09/02 01:16:41;;;;;;;16.02;11.10;;;14.30;99.90;;;;;;5031155;28;20220;-73
2023/09/02 01:19:12;;;;;;;17.27;10.60;;;14.20;99.90;;;;;;5026944;28;20180;-74
2023/09/02 01:22:03;;;;;;;18.30;11.20;;;14.20;99.90;;;;;;5031850;28;20849;-73
2023/09/02 01:24:37;;;;;;;18.35;11.20;;;14.20;99.90;;;;;;5030444;28;20198;-74
2023/09/02 01:27:03;;;;;;;16.98;11.23;;;14.20;99.90;;;;;;5031621;28;20287;-73
2023/09/02 01:29:34;;;;;;;24.63;13.45;;;14.20;99.90;;;;;;5029608;28;20703;-72
2023/09/02 01:32:01;;;;;;;20.35;13.57;;;14.10;99.90;;;;;;5031433;28;20211;-72
2023/09/02 01:34:29;;;;;;;22.20;13.13;;;14.10;99.90;;;;;;5061057;28;20215;-72
2023/09/02 01:36:59;;;;;;;23.90;12.85;;;14.10;99.90;;;;;;5064387;28;20192;-73
2023/09/02 01:39:26;;;;;;;18.13;12.05;;;14.00;99.90;;;;;;5024305;28;20188;-72
2023/09/02 01:41:53;;;;;;;18.45;12.85;;;14.00;99.90;;;;;;5030566;28;20215;-73
2023/09/02 01:44:20;;;;;;;18.90;12.85;;;14.00;99.90;;;;;;5029313;28;20203;-73
2023/09/02 01:46:47;;;;;;;20.63;12.75;;;14.10;99.90;;;;;;5022907;28;20629;-73
2023/09/02 01:49:14;;;;;;;19.65;12.70;;;14.00;99.90;;;;;;5024807;28;20215;-73
2023/09/02 01:51:41;;;;;;;20.83;12.38;;;14.00;99.90;;;;;;5030610;28;20192;-73
2023/09/02 01:54:07;;;;;;;19.35;12.57;;;13.90;99.90;;;;;;5024513;28;20204;-73
2023/09/02 01:56:34;;;;;;;21.02;12.93;;;14.00;99.90;;;;;;5030745;28;20582;-73
2023/09/02 01:59:01;;;;;;;21.25;12.13;;;14.00;99.90;;;;;;5029233;28;20184;-72
2023/09/02 02:01:27;;;;;;;19.90;11.63;;;13.90;99.90;;;;;;4998407;28;20193;-71
2023/09/02 02:04:09;;;;;;;16.77;11.90;;;13.90;99.90;;;;;;5024563;28;20250;-72
2023/09/02 02:06:39;;;;;;;19.48;11.18;;;13.90;99.90;;;;;;5030288;28;20628;-72
2023/09/02 02:09:12;;;;;;;19.42;13.00;;;13.90;99.90;;;;;;5020191;28;20184;-72
2023/09/02 02:11:38;;;;;;;17.90;12.07;;;13.90;99.90;;;;;;5024654;28;20191;-73
2023/09/02 02:14:06;;;;;;;18.63;11.93;;;13.90;99.90;;;;;;5028561;28;20504;-73
2023/09/02 02:16:32;;;;;;;16.35;12.18;;;13.80;99.90;;;;;;5012592;28;20239;-70
2023/09/02 02:18:59;;;;;;;19.42;13.02;;;13.90;99.90;;;;;;5029923;28;20184;-71
2023/09/02 02:21:29;;;;;;;21.38;12.45;;;13.80;99.90;;;;;;5028764;28;20207;-71
2023/09/02 02:23:56;;;;;;;20.63;13.00;;;13.80;99.90;;;;;;5029712;28;20271;-73
2023/09/02 02:26:22;;;;;;;21.15;13.52;;;13.80;99.90;;;;;;5063556;28;20275;-72
2023/09/02 02:28:48;;;;;;;21.13;13.70;;;13.80;99.90;;;;;;5029769;28;20266;-72
2023/09/02 02:31:14;;;;;;;19.30;14.57;;;13.80;99.90;;;;;;5029918;28;20180;-72
2023/09/02 02:33:40;;;;;;;21.10;14.25;;;13.80;99.90;;;;;;5057570;28;20201;-72
2023/09/02 02:36:09;;;;;;;23.73;15.93;;;13.70;99.90;;;;;;5063343;28;20703;-72
2023/09/02 02:38:36;;;;;;;26.33;18.60;;;13.70;99.90;;;;;;5026240;28;20191;-72
2023/09/02 02:41:02;;;;;;;26.42;16.63;;;13.70;99.90;;;;;;5029560;28;20267;-72
2023/09/02 02:43:28;;;;;;;24.77;17.35;;;13.70;99.90;;;;;;5022684;28;20908;-72
2023/09/02 02:45:55;;;;;;;32.40;18.25;;;13.60;99.90;;;;;;5029729;28;20698;-72
2023/09/02 02:48:30;;;;;;;22.30;16.23;;;13.60;99.90;;;;;;5025564;28;20199;-72
2023/09/02 02:50:57;;;;;;;22.58;16.40;;;13.60;99.90;;;;;;5030226;28;20237;-72
2023/09/02 02:53:24;;;;;;;21.05;15.73;;;13.60;99.90;;;;;;5056969;28;20185;-72
2023/09/02 02:55:51;;;;;;;26.40;16.83;;;13.60;99.90;;;;;;5029917;28;20286;-71
2023/09/02 02:58:17;;;;;;;22.65;15.60;;;13.60;99.90;;;;;;5025979;28;20203;-72
2023/09/02 03:00:44;;;;;;;24.40;16.85;;;13.60;99.90;;;;;;5027000;28;20346;-71
2023/09/02 03:03:11;;;;;;;22.42;15.23;;;13.60;99.90;;;;;;5026629;28;20212;-72
2023/09/02 03:05:38;;;;;;;22.33;14.63;;;13.50;99.90;;;;;;5026215;28;20192;-73
2023/09/02 03:08:07;;;;;;;25.85;15.95;;;13.50;99.90;;;;;;5042007;28;20519;-71
2023/09/02 03:10:35;;;;;;;21.58;15.32;;;13.50;99.90;;;;;;5033709;28;20786;-72
2023/09/02 03:13:02;;;;;;;22.33;14.75;;;13.50;99.90;;;;;;5032163;28;20199;-72
2023/09/02 03:15:29;;;;;;;23.55;15.90;;;13.50;99.90;;;;;;5032441;28;20220;-72
2023/09/02 03:17:56;;;;;;;23.33;14.95;;;13.50;99.90;;;;;;5030230;28;20208;-72
2023/09/02 03:20:24;;;;;;;24.52;15.30;;;13.50;99.90;;;;;;5044951;28;20258;-72
2023/09/02 03:22:51;;;;;;;24.05;14.80;;;13.50;99.90;;;;;;5047203;28;20294;-73
2023/09/02 03:25:17;;;;;;;21.45;15.65;;;13.50;99.90;;;;;;5020704;28;20616;-73
2023/09/02 03:27:43;;;;;;;24.55;14.85;;;13.50;99.90;;;;;;5027291;28;20188;-73
2023/09/02 03:30:09;;;;;;;22.20;14.73;;;13.50;99.90;;;;;;5033211;28;20238;-72
2023/09/02 03:32:36;;;;;;;21.90;15.02;;;13.50;99.90;;;;;;5031949;28;20189;-72
2023/09/02 03:35:04;;;;;;;29.77;17.95;;;13.50;99.90;;;;;;5055071;28;20714;-73
2023/09/02 03:37:30;;;;;;;22.58;15.93;;;13.50;99.90;;;;;;5059577;28;20546;-73
2023/09/02 03:39:57;;;;;;;22.17;15.43;;;13.50;99.90;;;;;;5048353;28;20242;-72
2023/09/02 03:42:23;;;;;;;21.35;15.25;;;13.50;99.90;;;;;;5033115;28;20199;-73
2023/09/02 03:44:49;;;;;;;22.77;15.70;;;13.60;99.90;;;;;;5027760;28;20191;-73
2023/09/02 03:47:15;;;;;;;24.30;16.10;;;13.60;99.90;;;;;;5011962;28;20197;-73
2023/09/02 03:49:42;;;;;;;22.75;15.35;;;13.60;99.90;;;;;;5059572;28;20195;-73
2023/09/02 03:52:08;;;;;;;23.42;16.17;;;13.60;99.90;;;;;;5060803;28;20314;-73
2023/09/02 03:54:36;;;;;;;25.20;15.43;;;13.70;99.90;;;;;;5032320;28;20671;-71
2023/09/02 03:57:02;;;;;;;21.67;16.05;;;13.70;99.90;;;;;;5062469;28;20257;-73
2023/09/02 03:59:28;;;;;;;23.42;15.88;;;13.70;99.90;;;;;;5030696;28;20230;-71
2023/09/02 04:01:54;;;;;;;23.13;15.95;;;13.70;99.90;;;;;;5029048;28;20307;-72
2023/09/02 04:04:20;;;;;;;22.83;16.77;;;13.70;99.90;;;;;;5031749;28;20666;-72
2023/09/02 04:06:46;;;;;;;24.10;16.48;;;13.70;99.90;;;;;;5028522;28;20191;-71
2023/09/02 04:09:12;;;;;;;23.60;16.38;;;13.70;99.90;;;;;;5027989;28;20245;-71
2023/09/02 04:11:41;;;;;;;26.48;16.50;;;13.70;99.90;;;;;;5046326;28;20215;-72
2023/09/02 04:14:07;;;;;;;24.88;17.05;;;13.70;99.90;;;;;;5029336;28;20274;-72
2023/09/02 04:16:34;;;;;;;25.88;17.92;;;13.80;99.90;;;;;;5029387;28;20219;-71
2023/09/02 04:19:02;;;;;;;26.67;15.95;;;13.80;99.90;;;;;;5037615;28;20210;-72
2023/09/02 04:21:30;;;;;;;25.27;17.48;;;13.80;99.90;;;;;;4995697;28;20192;-72
2023/09/02 04:23:56;;;;;;;28.10;17.05;;;13.80;99.90;;;;;;5059279;28;20188;-72
2023/09/02 04:26:22;;;;;;;28.95;17.23;;;13.80;99.90;;;;;;5030060;28;20202;-73
2023/09/02 04:28:49;;;;;;;26.65;18.08;;;13.80;99.90;;;;;;5028345;28;20215;-72
2023/09/02 04:31:17;;;;;;;23.58;17.17;;;13.80;99.90;;;;;;5028531;28;20235;-71
2023/09/02 04:33:44;;;;;;;25.15;17.02;;;13.80;99.90;;;;;;5021871;28;20199;-70
2023/09/02 04:36:13;;;;;;;23.38;16.38;;;13.80;99.90;;;;;;5031850;28;20210;-71
2023/09/02 04:38:41;;;;;;;26.08;17.30;;;13.80;99.90;;;;;;5031589;28;20325;-70
2023/09/02 04:41:08;;;;;;;25.10;17.58;;;13.90;99.90;;;;;;5016842;28;20188;-70
2023/09/02 04:43:35;;;;;;;24.13;16.05;;;13.90;99.90;;;;;;5038046;28;20189;-68
2023/09/02 04:46:02;;;;;;;26.45;17.25;;;13.90;99.90;;;;;;5059545;28;20194;-68
2023/09/02 04:48:30;;;;;;;28.10;17.52;;;13.90;99.90;;;;;;5038391;28;20185;-66
2023/09/02 04:50:56;;;;;;;26.42;17.95;;;13.90;99.90;;;;;;5031928;28;20226;-66
2023/09/02 04:53:25;;;;;;;28.25;17.30;;;13.90;99.90;;;;;;5013683;28;20666;-69
2023/09/02 04:55:52;;;;;;;23.13;16.38;;;13.90;99.90;;;;;;5008009;28;20281;-67
2023/09/02 04:58:21;;;;;;;23.10;16.70;;;13.90;99.90;;;;;;5030837;28;20329;-68
2023/09/02 05:00:47;;;;;;;25.02;17.45;;;13.90;99.90;;;;;;5029771;28;20310;-67
2023/09/02 05:03:13;;;;;;;26.08;17.95;;;13.90;99.90;;;;;;5025331;28;20214;-70
2023/09/02 05:05:40;;;;;;;31.02;18.25;;;13.90;99.90;;;;;;5062734;28;20184;-70
2023/09/02 05:08:10;;;;;;;29.70;18.55;;;13.90;99.90;;;;;;5031063;28;20196;-71
2023/09/02 05:10:37;;;;;;;27.55;18.67;;;13.90;99.90;;;;;;5014955;28;20219;-68
2023/09/02 05:13:05;;;;;;;26.15;18.27;;;13.90;99.90;;;;;;5028227;28;20203;-71
2023/09/02 05:15:31;;;;;;;31.77;19.15;;;13.90;99.90;;;;;;5031097;28;20231;-69
2023/09/02 05:17:58;;;;;;;27.98;19.10;;;13.90;99.90;;;;;;5029023;28;20188;-68
2023/09/02 05:20:25;;;;;;;28.73;18.88;;;13.90;99.90;;;;;;5029436;28;20219;-68
2023/09/02 05:22:51;;;;;;;28.70;18.50;;;13.90;99.90;;;;;;5030231;28;20226;-69
2023/09/02 05:25:17;;;;;;;28.52;18.33;;;13.90;99.90;;;;;;5038055;28;20191;-68
2023/09/02 05:27:44;;;;;;;26.20;18.42;;;13.90;99.90;;;;;;5033769;28;20605;-68
2023/09/02 05:30:10;;;;;;;25.77;18.13;;;13.90;99.90;;;;;;5027948;28;20187;-72
2023/09/02 05:32:36;;;;;;;26.48;18.38;;;14.00;99.90;;;;;;5029918;28;20181;-69
2023/09/02 05:35:02;;;;;;;29.27;19.25;;;13.90;99.90;;;;;;5045087;28;20219;-69
2023/09/02 05:37:29;;;;;;;28.00;20.58;;;14.00;99.90;;;;;;5030905;28;20279;-73
2023/09/02 05:39:55;;;;;;;30.30;19.98;;;14.00;99.90;;;;;;5026907;28;20602;-67
2023/09/02 05:42:20;;;;;;;30.38;20.25;;;14.00;99.90;;;;;;5031810;28;20195;-68
2023/09/02 05:44:47;;;;;;;32.25;19.35;;;14.00;99.90;;;;;;5026322;28;20271;-68
2023/09/02 05:47:12;;;;;;;26.35;19.23;;;14.10;99.90;;;;;;5031744;28;20192;-72
2023/09/02 05:49:38;;;;;;;29.70;19.60;;;14.10;99.90;;;;;;5025721;28;20199;-66
2023/09/02 05:52:05;;;;;;;27.90;19.38;;;14.10;99.90;;;;;;5027216;28;20187;-67
2023/09/02 05:54:31;;;;;;;27.05;19.48;;;14.20;99.90;;;;;;5026075;28;20192;-73
2023/09/02 05:56:57;;;;;;;31.20;20.48;;;14.30;99.90;;;;;;5027240;28;20987;-68
2023/09/02 05:59:23;;;;;;;32.70;19.60;;;14.30;99.90;;;;;;5023887;28;20704;-68
2023/09/02 06:01:50;;;;;;;29.67;19.58;;;14.40;99.90;;;;;;5063954;28;20191;-71
2023/09/02 06:04:16;;;;;;;29.23;19.10;;;14.40;99.90;;;;;;5024766;28;20258;-70
2023/09/02 06:06:45;;;;;;;27.50;19.98;;;14.50;99.90;;;;;;5029389;28;20225;-75
2023/09/02 06:09:11;;;;;;;29.05;19.58;;;14.60;99.90;;;;;;5024590;28;20227;-66
2023/09/02 06:11:37;;;;;;;31.77;20.05;;;14.70;99.90;;;;;;5027295;28;20641;-68
2023/09/02 06:14:03;;;;;;;35.55;19.60;;;14.70;99.90;;;;;;5030099;28;20655;-67
2023/09/02 06:16:29;;;;;;;27.33;18.05;;;14.80;99.90;;;;;;5029040;28;20224;-67
2023/09/02 06:18:55;;;;;;;29.58;18.00;;;14.80;99.90;;;;;;5026051;28;20199;-66
2023/09/02 06:21:21;;;;;;;27.08;18.73;;;14.90;99.90;;;;;;5027456;28;20187;-66
2023/09/02 06:23:47;;;;;;;28.25;18.98;;;14.90;99.90;;;;;;5028521;28;20568;-69
2023/09/02 06:26:13;;;;;;;27.83;17.88;;;15.00;99.90;;;;;;5031304;28;20241;-69
2023/09/02 06:28:41;;;;;;;26.63;18.42;;;15.00;99.90;;;;;;5025662;28;20275;-70
2023/09/02 06:31:08;;;;;;;26.60;17.65;;;15.00;99.90;;;;;;5023812;28;20267;-73
2023/09/02 06:33:34;;;;;;;28.40;17.92;;;15.10;99.90;;;;;;5023204;28;20223;-69
2023/09/02 06:36:08;;;;;;;26.92;17.55;;;15.20;99.90;;;;;;5024520;28;20607;-74
2023/09/02 06:38:34;;;;;;;27.40;17.42;;;15.20;99.90;;;;;;5024877;28;20210;-70
2023/09/02 06:40:59;;;;;;;29.77;18.83;;;15.30;99.90;;;;;;5026360;28;20562;-69
2023/09/02 06:43:25;;;;;;;33.47;18.27;;;15.30;99.90;;;;;;5029265;28;20205;-69
2023/09/02 06:45:51;;;;;;;28.95;18.05;;;15.40;99.90;;;;;;5027513;28;20180;-73
2023/09/02 06:48:17;;;;;;;26.02;17.95;;;15.50;99.90;;;;;;5028296;28;20706;-71
2023/09/02 06:50:46;;;;;;;26.00;16.60;;;15.60;99.90;;;;;;5034774;28;20204;-70
2023/09/02 06:53:12;;;;;;;27.73;17.55;;;15.70;99.90;;;;;;5029676;28;20190;-70
2023/09/02 06:55:38;;;;;;;26.17;16.85;;;15.70;99.90;;;;;;5033965;28;20667;-70
2023/09/02 06:58:04;;;;;;;26.85;17.10;;;15.80;99.90;;;;;;5030048;28;20183;-70
2023/09/02 07:00:30;;;;;;;28.58;17.05;;;15.90;99.90;;;;;;5030539;28;20235;-71
2023/09/02 07:02:56;;;;;;;28.85;16.20;;;16.00;99.90;;;;;;5031845;28;20191;-70
2023/09/02 07:05:22;;;;;;;22.90;16.30;;;16.00;99.90;;;;;;5031674;28;20687;-71
2023/09/02 07:07:47;;;;;;;26.10;15.85;;;16.10;99.90;;;;;;5030467;28;20180;-70
2023/09/02 07:10:13;;;;;;;30.40;16.58;;;16.20;99.90;;;;;;5029993;28;20258;-68
2023/09/02 07:12:39;;;;;;;24.30;15.88;;;16.30;99.90;;;;;;5060507;28;20282;-69
2023/09/02 07:15:06;;;;;;;25.10;15.13;;;16.30;99.90;;;;;;5034082;28;20219;-69
2023/09/02 07:17:32;;;;;;;22.60;15.90;;;16.40;99.90;;;;;;5031456;28;20278;-70
2023/09/02 07:19:58;;;;;;;24.70;15.95;;;16.50;99.90;;;;;;5034071;28;20711;-70
2023/09/02 07:22:24;;;;;;;22.48;15.10;;;16.50;99.90;;;;;;5033410;28;20271;-72
2023/09/02 07:24:50;;;;;;;24.45;16.27;;;16.60;99.90;;;;;;5033579;28;20620;-70
2023/09/02 07:27:16;;;;;;;22.30;15.88;;;16.70;99.90;;;;;;5033996;28;20191;-71
2023/09/02 07:29:42;;;;;;;24.88;16.33;;;16.80;99.90;;;;;;5055315;28;20200;-69
2023/09/02 07:32:08;;;;;;;21.50;15.23;;;16.90;99.90;;;;;;5031605;28;20203;-70
2023/09/02 07:34:37;;;;;;;27.10;15.98;;;16.90;99.90;;;;;;5031059;28;20215;-70
2023/09/02 07:37:03;;;;;;;26.48;15.48;;;17.00;99.90;;;;;;5033162;28;20242;-71
2023/09/02 07:39:29;;;;;;;20.88;15.40;;;17.10;99.90;;;;;;5030598;28;20199;-72
2023/09/02 07:41:55;;;;;;;23.20;14.82;;;17.20;99.90;;;;;;5036959;28;20184;-71
2023/09/02 07:44:21;;;;;;;21.98;14.68;;;17.30;99.90;;;;;;5027921;28;20797;-71
2023/09/02 07:46:47;;;;;;;21.48;14.13;;;17.30;99.90;;;;;;5034419;28;20195;-69
2023/09/02 07:49:13;;;;;;;22.38;14.43;;;17.40;99.90;;;;;;5026897;28;20611;-70
2023/09/02 07:51:39;;;;;;;20.67;14.50;;;17.40;99.90;;;;;;5030122;28;20196;-69
2023/09/02 07:54:05;;;;;;;23.70;13.38;;;17.50;99.90;;;;;;5015979;28;20263;-69
2023/09/02 07:56:31;;;;;;;21.92;14.00;;;17.50;99.90;;;;;;5033182;28;20834;-71
2023/09/02 07:58:57;;;;;;;21.58;13.98;;;17.60;99.90;;;;;;5031200;28;20643;-71
2023/09/02 08:01:23;;;;;;;20.13;14.13;;;17.70;99.90;;;;;;5026517;28;20246;-71
2023/09/02 08:03:49;;;;;;;24.92;15.15;;;17.70;99.90;;;;;;5020530;28;20216;-71
2023/09/02 08:06:15;;;;;;;21.80;14.63;;;17.80;99.90;;;;;;5057810;28;20499;-70
2023/09/02 08:08:41;;;;;;;25.23;15.93;;;17.90;99.90;;;;;;4984216;27;20236;-70
2023/09/02 08:11:07;;;;;;;20.45;14.82;;;18.00;99.90;;;;;;4978887;28;20745;-70
2023/09/02 08:13:34;;;;;;;22.27;14.88;;;18.00;99.90;;;;;;4971571;28;20194;-70
2023/09/02 08:16:05;;;;;;;22.20;13.60;;;18.10;99.90;;;;;;4972103;28;20342;-71
2023/09/02 08:18:32;;;;;;;21.95;14.20;;;18.20;99.90;;;;;;4969782;28;20190;-70
2023/09/02 08:20:58;;;;;;;19.27;13.75;;;18.30;99.90;;;;;;4970504;28;20186;-70
2023/09/02 08:23:24;;;;;;;20.88;13.55;;;18.40;99.90;;;;;;4971467;28;20204;-71
2023/09/02 08:25:50;;;;;;;21.90;13.88;;;18.40;99.90;;;;;;4987925;28;20594;-70
2023/09/02 08:28:16;;;;;;;19.17;12.70;;;18.50;99.90;;;;;;4974982;28;20272;-71
2023/09/02 08:30:43;;;;;;;17.02;12.88;;;18.50;99.90;;;;;;4988736;28;20200;-70
2023/09/02 08:33:09;;;;;;;18.92;11.80;;;18.60;99.90;;;;;;4969383;28;20190;-70
2023/09/02 08:35:38;;;;;;;19.60;12.38;;;18.60;99.90;;;;;;4969848;28;20229;-72
2023/09/02 08:38:04;;;;;;;17.92;12.55;;;18.70;99.90;;;;;;4970555;28;20220;-68
2023/09/02 08:40:33;;;;;;;18.25;12.05;;;18.70;99.90;;;;;;4988292;28;20218;-71
2023/09/02 08:43:01;;;;;;;22.58;13.18;;;18.80;99.90;;;;;;4967239;28;20217;-69
2023/09/02 08:45:29;;;;;;;16.15;10.63;;;18.80;99.90;;;;;;4974830;28;20199;-70
2023/09/02 08:48:00;;;;;;;18.73;11.00;;;18.90;99.90;;;;;;4974011;28;20262;-72
2023/09/02 08:50:28;;;;;;;15.02;10.00;;;18.90;99.90;;;;;;4975709;28;20189;-70
2023/09/02 08:52:54;;;;;;;18.00;11.00;;;19.00;99.90;;;;;;4981086;28;20225;-72
2023/09/02 08:55:22;;;;;;;20.67;11.60;;;19.00;99.90;;;;;;4971855;28;20205;-70
2023/09/02 08:57:49;;;;;;;18.77;11.30;;;19.10;99.90;;;;;;4973783;28;20551;-71
2023/09/02 09:00:15;;;;;;;16.83;11.50;;;19.10;99.90;;;;;;4969945;28;20316;-68
2023/09/02 09:02:41;;;;;;;22.02;12.68;;;19.20;99.90;;;;;;4971300;28;20277;-71
2023/09/02 09:05:08;;;;;;;17.10;11.20;;;19.20;99.90;;;;;;4968237;28;20198;-71
2023/09/02 09:07:38;;;;;;;17.70;11.23;;;19.30;99.90;;;;;;4968920;28;20201;-70
2023/09/02 09:10:07;;;;;;;20.40;11.25;;;19.30;99.90;;;;;;4965876;28;20195;-71
2023/09/02 09:12:34;;;;;;;21.80;12.27;;;19.40;99.90;;;;;;4971614;28;22391;-71
2023/09/02 09:15:02;;;;;;;20.95;11.20;;;19.40;99.90;;;;;;4967128;28;20221;-71
2023/09/02 09:17:30;;;;;;;18.05;11.60;;;19.50;99.90;;;;;;4967085;28;20283;-71
2023/09/02 09:19:59;;;;;;;20.25;12.52;;;19.60;99.90;;;;;;4969807;28;20189;-69
2023/09/02 09:22:26;;;;;;;17.23;12.35;;;19.60;99.90;;;;;;4970532;28;20564;-70
2023/09/02 09:24:53;;;;;;;20.02;11.98;;;19.70;99.90;;;;;;4971589;28;20189;-69
2023/09/02 09:27:19;;;;;;;16.98;11.45;;;19.70;99.90;;;;;;4972892;28;20273;-71
2023/09/02 09:29:45;;;;;;;19.75;12.38;;;19.80;99.90;;;;;;4973581;28;20213;-71
2023/09/02 09:32:14;;;;;;;20.73;11.50;;;19.80;99.90;;;;;;4989903;28;20190;-71
2023/09/02 09:34:41;;;;;;;18.00;10.65;;;19.80;99.90;;;;;;4963825;28;20182;-71
2023/09/02 09:37:09;;;;;;;22.48;11.60;;;19.90;99.90;;;;;;4968240;28;20197;-70
2023/09/02 09:39:43;;;;;;;20.13;11.00;;;19.90;99.90;;;;;;4967839;28;20581;-71
2023/09/02 09:42:14;;;;;;;22.17;14.20;;;20.00;99.90;;;;;;4972905;28;20178;-70
2023/09/02 09:44:55;;;;;;;33.85;23.48;;;20.20;99.90;;;;;;4970369;28;20190;-70
2023/09/02 09:47:22;;;;;;;19.85;13.73;;;20.30;99.90;;;;;;4972165;28;20720;-71
2023/09/02 09:49:52;;;;;;;19.08;10.68;;;20.40;99.90;;;;;;4967835;28;20186;-69
2023/09/02 09:52:21;;;;;;;15.57;10.63;;;20.60;99.90;;;;;;4985008;28;20639;-70
2023/09/02 09:54:49;;;;;;;16.75;10.73;;;20.70;99.90;;;;;;4982280;28;20194;-70
2023/09/02 09:57:37;;;;;;;20.27;10.88;;;20.90;99.90;;;;;;4967634;28;21952;-72
2023/09/02 10:00:06;;;;;;;18.70;11.27;;;21.10;99.90;;;;;;4970047;28;20688;-70
2023/09/02 10:02:34;;;;;;;20.77;11.13;;;21.30;99.90;;;;;;4970582;28;20303;-70
2023/09/02 10:05:01;;;;;;;15.88;10.57;;;21.50;99.90;;;;;;4998840;28;20193;-69
2023/09/02 10:07:32;;;;;;;22.50;9.73;;;21.70;99.90;;;;;;4967818;28;20340;-70
2023/09/02 10:10:00;;;;;;;15.35;10.20;;;21.70;99.90;;;;;;4970333;28;20816;-70
2023/09/02 10:12:33;;;;;;;17.70;10.73;;;21.90;99.90;;;;;;4969409;28;20204;-70
2023/09/02 10:15:00;;;;;;;16.92;10.68;;;22.00;99.90;;;;;;4967882;28;20186;-69
2023/09/02 10:17:27;;;;;;;15.35;10.40;;;22.00;99.90;;;;;;4970788;28;20193;-70
2023/09/02 10:19:54;;;;;;;17.20;10.13;;;21.90;99.90;;;;;;4968093;28;20216;-71
2023/09/02 10:22:25;;;;;;;19.90;10.30;;;21.90;99.90;;;;;;4983903;28;20237;-69
2023/09/02 10:25:12;;;;;;;16.45;10.02;;;21.70;99.90;;;;;;4969079;28;20272;-70
2023/09/02 10:27:42;;;;;;;14.07;9.68;;;21.60;99.90;;;;;;4970377;28;20190;-71
2023/09/02 10:30:18;;;;;;;14.88;10.05;;;21.40;99.90;;;;;;4960078;28;20189;-70
2023/09/02 10:32:59;;;;;;;13.57;9.82;;;21.30;99.90;;;;;;4971028;28;20193;-71
2023/09/02 10:35:30;;;;;;;14.48;9.57;;;21.20;99.90;;;;;;4969297;28;20897;-70
2023/09/02 10:38:02;;;;;;;16.92;9.10;;;21.10;99.90;;;;;;4969168;28;20228;-70
2023/09/02 10:40:35;;;;;;;14.35;9.02;;;21.00;99.90;;;;;;4968147;28;20193;-72
2023/09/02 10:43:02;;;;;;;16.67;8.80;;;20.90;99.90;;;;;;4967867;28;20259;-71
2023/09/02 10:45:29;;;;;;;14.57;8.48;;;20.90;99.90;;;;;;4970068;28;20194;-71
2023/09/02 10:47:55;;;;;;;11.60;7.68;;;21.00;99.90;;;;;;4968771;28;20218;-71
2023/09/02 10:50:21;;;;;;;12.88;7.70;;;21.20;99.90;;;;;;4968936;28;20189;-71
2023/09/02 10:52:50;;;;;;;12.32;7.53;;;21.30;99.90;;;;;;4968460;28;20182;-72
2023/09/02 10:55:16;;;;;;;11.05;7.85;;;21.40;99.90;;;;;;4962343;28;20234;-72
2023/09/02 10:57:55;;;;;;;12.48;8.45;;;21.60;99.90;;;;;;4967161;28;20187;-71
2023/09/02 11:00:26;;;;;;;12.48;8.00;;;21.70;99.90;;;;;;4983875;28;20558;-72
2023/09/02 11:03:01;;;;;;;12.30;7.55;;;21.80;99.90;;;;;;4969266;28;20183;-71
2023/09/02 11:05:28;;;;;;;11.95;7.97;;;21.90;99.90;;;;;;4969054;28;20186;-71
2023/09/02 11:07:54;;;;;;;9.45;7.05;;;21.90;99.90;;;;;;4968828;28;20201;-70
2023/09/02 11:10:35;;;;;;;12.57;8.40;;;21.80;99.90;;;;;;4964542;28;20205;-73
2023/09/02 11:13:04;;;;;;;15.93;8.30;;;21.70;99.90;;;;;;4965378;28;20201;-71
2023/09/02 11:15:33;;;;;;;15.23;8.13;;;21.60;99.90;;;;;;4981838;28;20319;-71
2023/09/02 11:18:34;;;;;;;13.70;8.50;;;21.60;99.90;;;;;;4962227;28;20399;-69
2023/09/02 11:21:00;;;;;;;10.85;7.75;;;21.60;99.90;;;;;;4965405;28;20376;-71
2023/09/02 11:23:26;;;;;;;14.55;8.07;;;21.60;99.90;;;;;;4968904;28;20275;-71
2023/09/02 11:26:04;;;;;;;11.23;7.60;;;21.60;99.90;;;;;;4970367;28;20194;-70
2023/09/02 11:28:30;;;;;;;15.82;7.72;;;21.60;99.90;;;;;;4967155;28;20213;-71
2023/09/02 11:31:09;;;;;;;11.13;6.95;;;21.60;99.90;;;;;;4969599;28;20331;-72
2023/09/02 11:33:46;;;;;;;11.70;7.57;;;21.60;99.90;;;;;;4970167;28;20185;-71
2023/09/02 11:36:17;;;;;;;10.50;6.88;;;21.60;99.90;;;;;;4973716;28;20248;-70
2023/09/02 11:38:44;;;;;;;10.02;7.10;;;21.60;99.90;;;;;;4970683;28;20186;-70
2023/09/02 11:41:23;;;;;;;11.82;6.82;;;21.60;99.90;;;;;;4970530;28;20477;-73
2023/09/02 11:43:49;;;;;;;10.30;6.18;;;21.60;99.90;;;;;;4956633;28;20297;-71
2023/09/02 11:46:18;;;;;;;9.95;5.93;;;21.70;99.90;;;;;;4974698;28;20217;-70
2023/09/02 11:48:45;;;;;;;10.32;5.65;;;21.90;99.90;;;;;;4969908;28;20312;-71
2023/09/02 11:51:12;;;;;;;10.60;5.50;;;22.10;99.90;;;;;;4987712;28;20194;-71
2023/09/02 11:53:41;;;;;;;9.13;5.32;;;22.20;99.90;;;;;;4973307;28;20205;-70
2023/09/02 11:56:11;;;;;;;7.55;4.85;;;22.20;99.90;;;;;;4975842;28;20220;-72
2023/09/02 11:58:37;;;;;;;8.43;4.97;;;22.10;99.90;;;;;;4972934;28;20201;-71
2023/09/02 12:01:03;;;;;;;9.15;4.47;;;21.90;99.90;;;;;;5005523;28;20248;-71
2023/09/02 12:03:29;;;;;;;9.10;5.70;;;21.80;99.90;;;;;;4970294;28;20201;-72
2023/09/02 12:05:59;;;;;;;10.77;5.38;;;21.70;99.90;;;;;;4971308;28;20653;-70
2023/09/02 12:08:26;;;;;;;7.15;4.25;;;21.70;99.90;;;;;;4969558;28;20216;-71
2023/09/02 12:10:53;;;;;;;8.05;4.30;;;21.70;99.90;;;;;;4971735;28;20186;-70
2023/09/02 12:13:19;;;;;;;4.95;3.80;;;21.70;99.90;;;;;;4970820;28;20197;-70
2023/09/02 12:15:49;;;;;;;8.15;5.00;;;21.70;99.90;;;;;;5003775;28;20217;-70
2023/09/02 12:18:17;;;;;;;5.90;4.10;;;21.70;99.90;;;;;;5003201;28;20206;-70
2023/09/02 12:20:43;;;;;;;4.88;3.22;;;21.80;99.90;;;;;;4961993;28;20261;-70
2023/09/02 12:23:09;;;;;;;6.85;3.75;;;21.80;99.90;;;;;;4969628;28;20619;-71
2023/09/02 12:25:35;;;;;;;6.97;4.00;;;21.80;99.90;;;;;;4974716;28;20193;-70
2023/09/02 12:28:30;;;;;;;6.38;4.28;;;21.80;99.90;;;;;;4987641;28;20650;-71
2023/09/02 12:30:57;;;;;;;8.43;4.30;;;21.80;99.90;;;;;;4980352;28;20257;-71
2023/09/02 12:33:24;;;;;;;6.57;4.10;;;21.80;99.90;;;;;;4970236;28;20341;-68